Charlevoix, MI

12:34 PM EST on December 28, 2014 (GMT -0500)
1.5 W Ironton | Change Station
CLOSE
Current Station
Personal Weather Station
Location: Charlevoix, MI
Elevation: 750 ft
Nearby Weather Stations

Elev 750 ft 45.26 °N, 85.22 °W | Updated 10 seconds ago

Overcast
Overcast
27.8 °F
Feels Like 19 °F
N
9.0
Wind Variable Wind from SW
Gusts 19.0 mph

Today
High -- | Low -- °F
--% Chance of Precip.
Yesterday
High -- | Low -- °F
Precip. -- in
8:19 AM 5:05 PM
Waxing Crescent, 49% visible
Pressure 30.07 in
Visibility 10.0 miles
Clouds Overcast 2500 ft
Windchill 19 °F
Dew Point 22 °F
Humidity 79%
Rainfall 0.00 in
Snow Depth Not available.
UV 1 out of 12
Pollen .10 out of 12
Air Quality Not available.
Flu Activity Not available.
METAR KCVX 281715Z AUTO 26012G21KT 10SM OVC025 M02/M06 A3007 RMK AO2 T10171058

More Conditions Fewer Conditions

Pressure 30.07 in
Visibility 10.0 miles
Clouds Overcast 2500 ft
Windchill 19 °F
Dew Point 22 °F
Humidity 79%
Rainfall 0.00 in
Snow Depth Not available.
UV 1 out of 12
Pollen .10 out of 12
Air Quality Not available.
Flu Activity Not available.
METAR KCVX 281715Z AUTO 26012G21KT 10SM OVC025 M02/M06 A3007 RMK AO2 T10171058

More Conditions Fewer Conditions

Nowcast | as of 12:00 PM EST on December 28, 2014

At 1 PM...partly cloudy. Scattered snow showers. Temperature 29. West winds 14 mph. At 3 PM...mostly cloudy. Scattered snow showers. Temperature 30. West winds 15 mph. At 5 PM...mostly cloudy. Scattered snow showers. Temperature 30. Northwest winds 15 mph. At 7 PM...mostly cloudy. Scattered snow showers. Temperature 26. Northwest winds 15 mph.

×

10-Day Weather Forecast

Almanac

Astronomy

Dec. 28, 2014 Rise Set
Actual Time
Civil Twilight
Nautical Twilight
Astronomical Twilight
Moon
Length of Visible Light
Length of Day
Tomorrow will be .
, % of the Moon is Illuminated

Today's Extremes

State Highs State Lows

Community

WunderPhotos

Upload Photos

1,781,365 photos uploaded!

WunderBlogs® & News

Nearby

Air Quality

  Air Quality AQ Index Pollutant
Not available.

Snow Depth

Station Depth Elevation

Earthquake Activity

City Distance Mag. Time & Date
Minimum magnitude displayed is 2.5.

Coastal Water Temperatures

Place Temperature

Nearby Weather Stations